首页
METAR-TAF:

METAR-TAF

机场 :

雷诺-太浩国际机场

雷諾, 内华达州, 美国

纬度: 39-29-02N, 经度: 119-46-16W, 海拔: 1345米

当前天气观测

该预报发布于54分钟前的00:55 UTC
风速12节,风向北转东北,有时为16节阵风
温度 17°C
湿度 14%
气压 1016 hPa
能見度: 16.1公里
多云层高于10000英尺

METAR: KRNO 210055Z 02012G16KT 10SM BKN100 17/M11 A3001 RMK AO2 SLP134 T01671106

时间: 18:49 (01:49 UTC)

预报

该预报发布于2小时和29分钟前的23:20 UTC
预报有效从21日的 00点(UTC)到 21日的 24点(UTC)
风速10节,风向,有时为18节阵风
能見度: 10公里
少量云层高于8000英尺
散云层高于20000英尺
从 21日的 0400点(UTC)
风速4节,风向东转东北
能見度: 10公里
天空无云
从 21日的 1800点(UTC)
风速7节,风向东转东南
能見度: 10公里
天空无云

TAF: KRNO 202320Z 2100/2124 01010G18KT P6SM FEW080 SCT200 FM210400 06004KT P6SM SKC FM211800 12007KT P6SM SKC

超过4000个机场的气象观测和天气预报(METAR&TAF报告)。

可查询的气象台以黄色和红色小点在地图上表示。

将鼠标移到小点上方,可查看气象台名称。

然后点击查看天气观测和预报。

如需切换地图:点击带黑十字的绿色按钮放大地图;点击带横线的绿色按钮缩小地图;或者点击绿色箭头查看邻近地区的地图。


METAR-TAF: